Time;durP1;ratioP1;P1;durP2;ratioP2;P2;SDS_P1;SDS_P2;PMS_P1;PMS_P2;Temp;Humidity;BMP_temperature;BMP_pressure;BME280_temperature;BME280_humidity;BME280_pressure;Samples;Min_cycle;Max_cycle;Signal;HPM_P1;HPM_P2
2023/06/04 00:00:38;;;;;;;7.20;5.33;;;14.40;12.30;;;;;;5011927;28;20180;-73
2023/06/04 00:03:03;;;;;;;7.37;6.60;;;14.30;11.60;;;;;;5011940;28;20176;-72
2023/06/04 00:05:29;;;;;;;6.10;5.07;;;14.30;12.00;;;;;;5012242;28;20180;-72
2023/06/04 00:07:54;;;;;;;9.43;5.97;;;14.20;12.10;;;;;;5012316;28;20537;-73
2023/06/04 00:10:20;;;;;;;6.77;5.57;;;14.20;12.60;;;;;;5011308;28;20181;-72
2023/06/04 00:12:46;;;;;;;8.70;5.80;;;14.10;12.50;;;;;;5011619;28;20193;-73
2023/06/04 00:15:14;;;;;;;8.80;6.83;;;14.10;12.90;;;;;;5012130;28;20263;-72
2023/06/04 00:17:40;;;;;;;7.30;5.90;;;14.00;12.70;;;;;;5011736;28;20204;-72
2023/06/04 00:20:06;;;;;;;6.93;5.63;;;14.00;12.90;;;;;;5011980;28;20420;-72
2023/06/04 00:22:32;;;;;;;12.10;6.83;;;13.90;13.10;;;;;;5011690;28;20514;-73
2023/06/04 00:24:57;;;;;;;12.20;7.00;;;13.90;13.40;;;;;;5012237;28;20442;-73
2023/06/04 00:27:23;;;;;;;9.03;6.20;;;13.90;13.00;;;;;;5012094;28;20188;-73
2023/06/04 00:29:48;;;;;;;9.50;6.27;;;13.90;13.20;;;;;;5012004;28;20180;-73
2023/06/04 00:32:14;;;;;;;8.73;6.60;;;13.80;13.70;;;;;;5011491;28;20377;-73
2023/06/04 00:34:40;;;;;;;7.93;5.90;;;13.70;14.30;;;;;;5012043;28;20204;-73
2023/06/04 00:37:05;;;;;;;6.40;5.57;;;13.70;14.40;;;;;;5010351;28;20207;-73
2023/06/04 00:39:32;;;;;;;9.67;6.43;;;13.70;14.10;;;;;;5012098;28;20263;-73
2023/06/04 00:41:57;;;;;;;9.13;7.23;;;13.60;14.20;;;;;;5011956;28;20625;-73
2023/06/04 00:44:24;;;;;;;8.77;6.77;;;13.60;14.10;;;;;;5011890;28;20414;-73
2023/06/04 00:46:51;;;;;;;7.77;5.97;;;13.60;14.40;;;;;;5011825;28;20221;-73
2023/06/04 00:49:16;;;;;;;9.07;5.60;;;13.50;14.80;;;;;;5011581;28;20423;-72
2023/06/04 00:51:42;;;;;;;7.10;6.07;;;13.50;15.20;;;;;;5011291;28;20494;-72
2023/06/04 00:54:11;;;;;;;10.77;7.27;;;13.40;18.50;;;;;;5011565;28;20212;-72
2023/06/04 00:56:38;;;;;;;6.40;5.70;;;13.40;18.90;;;;;;5009924;28;20286;-73
2023/06/04 00:59:06;;;;;;;6.60;5.77;;;13.30;18.90;;;;;;5011425;28;20419;-72
2023/06/04 01:02:06;;;;;;;6.30;5.20;;;13.40;18.40;;;;;;5011231;28;20461;-72
2023/06/04 01:04:49;;;;;;;6.83;5.20;;;13.20;18.80;;;;;;5010084;28;20411;-72
2023/06/04 01:07:16;;;;;;;9.30;5.67;;;13.20;18.30;;;;;;5011590;28;20695;-72
2023/06/04 01:09:44;;;;;;;7.37;5.73;;;13.20;18.00;;;;;;5011219;28;20437;-72
2023/06/04 01:12:10;;;;;;;5.97;5.00;;;13.20;17.70;;;;;;5011221;28;20504;-72
2023/06/04 01:14:36;;;;;;;8.23;5.20;;;13.20;17.90;;;;;;5011873;28;20527;-72
2023/06/04 01:17:17;;;;;;;10.77;6.60;;;13.20;18.00;;;;;;5011918;28;20462;-73
2023/06/04 01:20:08;;;;;;;8.53;6.00;;;13.00;18.90;;;;;;5011853;28;20172;-72
2023/06/04 01:22:48;;;;;;;7.87;6.10;;;12.90;20.10;;;;;;5012753;28;20443;-74
2023/06/04 01:25:38;;;;;;;6.27;4.40;;;13.00;19.70;;;;;;5015394;28;20452;-73
2023/06/04 01:28:06;;;;;;;8.10;5.83;;;13.00;19.20;;;;;;5013811;28;20427;-73
2023/06/04 01:30:34;;;;;;;9.20;6.60;;;12.90;20.30;;;;;;5015100;28;20422;-73
2023/06/04 01:33:00;;;;;;;6.83;5.23;;;13.00;20.40;;;;;;5013743;28;20447;-73
2023/06/04 01:35:27;;;;;;;8.37;6.90;;;13.00;20.40;;;;;;5015213;28;20407;-74
2023/06/04 01:37:54;;;;;;;6.93;5.23;;;12.90;20.30;;;;;;5015230;28;20457;-73
2023/06/04 01:40:20;;;;;;;7.17;5.43;;;12.90;19.50;;;;;;5015334;28;20456;-73
2023/06/04 01:42:46;;;;;;;6.87;5.40;;;12.90;19.70;;;;;;5013508;28;20908;-74
2023/06/04 01:45:12;;;;;;;6.43;5.43;;;12.90;19.70;;;;;;5015161;28;20415;-73
2023/06/04 01:47:37;;;;;;;7.93;5.40;;;12.80;20.30;;;;;;5015062;28;20393;-73
2023/06/04 01:50:09;;;;;;;7.77;5.97;;;12.90;19.30;;;;;;5015071;28;20500;-73
2023/06/04 01:52:35;;;;;;;7.00;5.57;;;12.90;19.00;;;;;;5015128;28;20196;-74
2023/06/04 01:55:01;;;;;;;6.60;5.57;;;12.90;19.40;;;;;;5014842;28;20422;-74
2023/06/04 01:57:27;;;;;;;6.50;5.00;;;12.80;20.30;;;;;;5014894;28;20482;-73
2023/06/04 01:59:52;;;;;;;5.90;5.10;;;12.80;20.30;;;;;;5014903;28;20508;-74
2023/06/04 02:02:18;;;;;;;6.57;5.30;;;12.70;20.20;;;;;;5014410;28;20254;-73
2023/06/04 02:04:44;;;;;;;7.50;5.87;;;12.60;20.20;;;;;;5014662;28;20187;-73
2023/06/04 02:07:13;;;;;;;6.07;5.20;;;12.60;21.10;;;;;;5014464;28;20173;-73
2023/06/04 02:09:40;;;;;;;8.80;5.90;;;12.50;22.20;;;;;;5013019;28;20421;-73
2023/06/04 02:12:06;;;;;;;7.47;5.10;;;12.50;22.40;;;;;;5012714;28;20450;-73
2023/06/04 02:14:31;;;;;;;7.97;6.37;;;12.40;23.30;;;;;;5014505;28;20415;-73
2023/06/04 02:17:00;;;;;;;6.80;6.07;;;12.40;23.40;;;;;;5014247;28;20790;-74
2023/06/04 02:19:26;;;;;;;6.23;5.20;;;12.30;24.20;;;;;;5012970;28;20683;-73
2023/06/04 02:21:53;;;;;;;8.07;5.33;;;12.30;24.20;;;;;;5013911;28;20496;-73
2023/06/04 02:24:18;;;;;;;9.03;6.97;;;12.20;30.20;;;;;;5014351;28;20403;-73
2023/06/04 02:26:44;;;;;;;9.03;5.80;;;12.20;30.40;;;;;;5014058;28;20410;-73
2023/06/04 02:29:10;;;;;;;13.03;7.13;;;12.20;30.40;;;;;;5014010;28;20179;-73
2023/06/04 02:31:35;;;;;;;6.60;5.20;;;12.20;30.00;;;;;;5012351;28;20321;-73
2023/06/04 02:34:01;;;;;;;6.73;4.87;;;12.20;30.30;;;;;;5012857;28;20180;-72
2023/06/04 02:36:29;;;;;;;8.63;5.07;;;12.20;30.50;;;;;;5013872;28;20574;-73
2023/06/04 02:38:55;;;;;;;6.87;5.70;;;12.20;30.20;;;;;;5014116;28;20634;-73
2023/06/04 02:41:21;;;;;;;7.30;4.90;;;12.20;30.70;;;;;;5012265;28;20431;-73
2023/06/04 02:43:47;;;;;;;8.23;5.47;;;12.20;31.20;;;;;;5012365;28;20942;-72
2023/06/04 02:46:12;;;;;;;8.47;6.13;;;12.10;33.00;;;;;;5013752;28;20179;-73
2023/06/04 02:48:38;;;;;;;7.33;6.20;;;12.10;36.70;;;;;;5013749;28;20210;-73
2023/06/04 02:51:05;;;;;;;7.33;6.03;;;12.00;37.80;;;;;;5014078;28;20684;-73
2023/06/04 02:53:30;;;;;;;7.53;6.10;;;11.90;37.70;;;;;;5013703;28;20184;-74
2023/06/04 02:55:56;;;;;;;9.13;6.07;;;11.90;37.60;;;;;;5012219;28;20422;-73
2023/06/04 02:58:24;;;;;;;8.03;5.23;;;11.90;38.00;;;;;;5013525;28;20182;-73
2023/06/04 03:00:52;;;;;;;7.27;6.47;;;11.80;37.20;;;;;;5013439;28;20198;-73
2023/06/04 03:03:17;;;;;;;7.27;5.40;;;11.80;38.80;;;;;;5012044;28;20941;-73
2023/06/04 03:05:43;;;;;;;7.57;6.20;;;11.70;38.30;;;;;;5013501;28;20403;-73
2023/06/04 03:08:09;;;;;;;10.87;7.10;;;11.70;38.70;;;;;;5011916;28;20201;-73
2023/06/04 03:10:34;;;;;;;6.73;5.30;;;11.60;38.40;;;;;;5013114;28;20772;-74
2023/06/04 03:13:00;;;;;;;7.90;5.53;;;11.60;38.80;;;;;;5012937;28;20175;-73
2023/06/04 03:15:25;;;;;;;8.53;5.47;;;11.60;37.90;;;;;;5013229;28;20179;-73
2023/06/04 03:17:51;;;;;;;7.10;5.53;;;11.60;38.50;;;;;;5013098;28;20207;-73
2023/06/04 03:20:17;;;;;;;5.80;4.60;;;11.60;38.20;;;;;;5013098;28;20226;-74
2023/06/04 03:22:42;;;;;;;6.40;4.77;;;11.60;37.80;;;;;;5011422;28;20198;-73
2023/06/04 03:25:09;;;;;;;6.60;5.03;;;11.60;37.60;;;;;;5013104;28;20416;-71
2023/06/04 03:27:34;;;;;;;7.77;5.97;;;11.70;37.20;;;;;;5013123;28;20202;-72
2023/06/04 03:30:00;;;;;;;7.70;5.00;;;11.60;38.70;;;;;;5013334;28;20443;-73
2023/06/04 03:32:25;;;;;;;8.07;6.10;;;11.60;37.90;;;;;;5012635;28;20298;-73
2023/06/04 03:34:51;;;;;;;6.83;5.43;;;11.60;39.60;;;;;;5013155;28;20175;-73
2023/06/04 03:37:17;;;;;;;9.10;6.60;;;11.50;39.90;;;;;;5011703;28;20234;-72
2023/06/04 03:39:43;;;;;;;7.80;5.83;;;11.50;40.40;;;;;;5012926;28;20175;-72
2023/06/04 03:42:08;;;;;;;6.03;4.97;;;11.50;38.90;;;;;;5012452;28;20435;-73
2023/06/04 03:44:34;;;;;;;8.53;5.97;;;11.50;38.80;;;;;;5011239;28;20297;-72
2023/06/04 03:47:00;;;;;;;7.03;5.47;;;11.50;38.60;;;;;;5012483;28;20213;-72
2023/06/04 03:49:26;;;;;;;8.10;5.57;;;11.50;39.10;;;;;;5012523;28;20175;-73
2023/06/04 03:51:51;;;;;;;9.57;5.77;;;11.50;39.40;;;;;;5012160;28;20435;-73
2023/06/04 03:54:17;;;;;;;8.20;6.33;;;11.50;39.40;;;;;;5012498;28;20174;-72
2023/06/04 03:56:46;;;;;;;10.17;5.93;;;11.50;39.90;;;;;;5011109;28;20296;-72
2023/06/04 03:59:12;;;;;;;5.97;5.10;;;11.50;40.90;;;;;;5012504;28;20171;-73
2023/06/04 04:01:38;;;;;;;7.03;6.33;;;11.60;40.80;;;;;;5011981;28;20525;-72
2023/06/04 04:04:04;;;;;;;7.40;5.53;;;11.60;41.20;;;;;;5012286;28;20414;-73
2023/06/04 04:06:30;;;;;;;5.73;5.10;;;11.60;41.30;;;;;;5012145;28;20501;-72
2023/06/04 04:08:56;;;;;;;7.83;5.70;;;11.60;41.60;;;;;;5012156;28;20442;-73
2023/06/04 04:11:22;;;;;;;6.40;4.60;;;11.70;41.60;;;;;;5011903;28;20656;-72
2023/06/04 04:13:48;;;;;;;8.67;6.03;;;11.80;41.90;;;;;;5011889;28;20188;-72
2023/06/04 04:16:14;;;;;;;10.00;6.73;;;11.80;42.40;;;;;;5011925;28;20487;-72
2023/06/04 04:18:42;;;;;;;6.60;5.17;;;11.80;42.80;;;;;;5012389;28;20498;-72
2023/06/04 04:21:08;;;;;;;16.10;5.97;;;11.80;43.10;;;;;;5011784;28;20198;-73
2023/06/04 04:23:33;;;;;;;10.80;5.93;;;11.90;46.60;;;;;;5011509;28;20516;-72
2023/06/04 04:25:59;;;;;;;7.93;5.97;;;11.90;45.30;;;;;;5011760;28;20182;-72
2023/06/04 04:28:30;;;;;;;6.50;5.00;;;12.00;43.70;;;;;;5011716;28;20247;-73
2023/06/04 04:31:06;;;;;;;7.37;5.33;;;12.00;43.10;;;;;;5012146;28;20660;-72
2023/06/04 04:33:32;;;;;;;6.60;4.80;;;12.10;43.20;;;;;;5011775;28;20509;-71
2023/06/04 04:35:59;;;;;;;10.53;5.80;;;12.30;41.40;;;;;;5010298;28;20502;-72
2023/06/04 04:38:25;;;;;;;7.57;5.10;;;12.30;37.20;;;;;;5011849;28;20430;-72
2023/06/04 04:40:52;;;;;;;7.53;5.87;;;12.40;36.90;;;;;;5011586;28;20495;-72
2023/06/04 04:43:30;;;;;;;7.63;5.90;;;12.50;31.40;;;;;;5010258;28;20458;-72
2023/06/04 04:45:55;;;;;;;7.17;5.60;;;12.60;30.40;;;;;;5011832;28;20449;-72
2023/06/04 04:48:21;;;;;;;8.70;5.70;;;12.70;33.30;;;;;;5011899;28;20437;-73
2023/06/04 04:50:46;;;;;;;8.00;5.50;;;12.80;33.40;;;;;;5011678;28;20192;-72
2023/06/04 04:53:12;;;;;;;6.20;5.40;;;12.90;37.00;;;;;;5011385;28;20176;-72
2023/06/04 04:55:38;;;;;;;7.33;5.90;;;;;;;;;;5011951;28;20685;-72
2023/06/04 04:58:03;;;;;;;9.67;6.17;;;13.10;42.10;;;;;;5015722;28;20203;-72
2023/06/04 05:00:30;;;;;;;8.90;5.30;;;13.20;38.30;;;;;;5015752;28;20510;-73
2023/06/04 05:02:55;;;;;;;7.20;5.00;;;13.30;47.30;;;;;;5015599;28;20318;-72
2023/06/04 05:05:21;;;;;;;6.13;4.87;;;13.40;39.30;;;;;;5015875;28;20509;-72
2023/06/04 05:07:47;;;;;;;8.97;6.00;;;13.50;37.90;;;;;;5015697;28;20183;-72
2023/06/04 05:10:12;;;;;;;7.80;5.00;;;13.50;36.90;;;;;;5015744;28;20186;-73
2023/06/04 05:12:38;;;;;;;7.43;4.83;;;13.70;37.30;;;;;;5015464;28;20664;-73
2023/06/04 05:15:04;;;;;;;8.03;5.27;;;13.80;36.60;;;;;;5015617;28;20596;-73
2023/06/04 05:17:29;;;;;;;5.33;4.33;;;14.00;34.50;;;;;;5015792;28;20587;-73
2023/06/04 05:20:11;;;;;;;5.20;4.10;;;14.20;34.70;;;;;;5015660;28;20415;-73
2023/06/04 05:22:37;;;;;;;5.73;4.23;;;14.30;33.10;;;;;;5015237;28;20696;-73
2023/06/04 05:25:03;;;;;;;6.27;4.80;;;14.50;31.20;;;;;;5015469;28;20409;-73
2023/06/04 05:27:28;;;;;;;6.27;4.83;;;14.70;26.40;;;;;;5015661;28;20421;-72
2023/06/04 05:29:54;;;;;;;6.43;5.47;;;14.90;21.70;;;;;;5015032;28;20445;-72
2023/06/04 05:32:22;;;;;;;9.00;5.67;;;15.10;22.70;;;;;;5013534;28;20763;-72
2023/06/04 05:34:48;;;;;;;6.83;5.43;;;15.40;28.70;;;;;;5014925;28;20499;-73
2023/06/04 05:37:16;;;;;;;7.47;6.00;;;15.70;18.70;;;;;;5015236;28;20459;-72
2023/06/04 05:39:42;;;;;;;8.57;6.10;;;16.00;13.80;;;;;;5015554;28;20257;-72
2023/06/04 05:42:08;;;;;;;10.37;8.13;;;16.40;11.40;;;;;;5014954;28;20437;-72
2023/06/04 05:44:33;;;;;;;9.67;6.27;;;16.50;9.70;;;;;;5013441;28;20934;-73
2023/06/04 05:46:59;;;;;;;7.23;5.40;;;17.20;14.10;;;;;;5015178;28;20241;-73
2023/06/04 05:49:26;;;;;;;5.87;5.27;;;18.60;23.00;;;;;;5015284;28;20184;-73
2023/06/04 05:51:51;;;;;;;9.03;6.10;;;19.90;18.20;;;;;;5013468;28;20208;-73
2023/06/04 05:54:17;;;;;;;7.03;6.33;;;22.00;16.40;;;;;;5014930;28;20422;-73
2023/06/04 05:56:42;;;;;;;8.00;6.27;;;23.50;13.10;;;;;;5014855;28;20222;-73
2023/06/04 05:59:08;;;;;;;6.57;5.87;;;25.00;10.30;;;;;;5014680;28;20180;-73
2023/06/04 06:01:34;;;;;;;5.67;5.17;;;26.50;10.10;;;;;;5014383;28;20287;-74
2023/06/04 06:04:00;;;;;;;6.63;6.13;;;28.50;7.60;;;;;;5014719;28;20173;-73
2023/06/04 06:06:26;;;;;;;6.80;6.20;;;28.80;6.00;;;;;;5014562;28;20429;-74
2023/06/04 06:08:54;;;;;;;5.80;5.30;;;29.80;4.80;;;;;;5014513;28;20248;-73
2023/06/04 06:11:21;;;;;;;6.60;5.90;;;30.80;1.00;;;;;;5014439;28;20206;-73
2023/06/04 06:13:47;;;;;;;7.00;6.30;;;31.40;1.00;;;;;;5012827;28;20441;-74
2023/06/04 06:16:12;;;;;;;6.53;6.03;;;30.90;1.00;;;;;;5014315;28;20944;-74
2023/06/04 06:18:38;;;;;;;6.67;6.17;;;32.20;1.00;;;;;;5014436;28;20601;-74
2023/06/04 06:21:03;;;;;;;6.67;5.83;;;32.00;1.00;;;;;;5014210;28;20200;-74
2023/06/04 06:23:30;;;;;;;6.97;6.30;;;33.30;1.00;;;;;;5014500;28;20505;-74
2023/06/04 06:25:55;;;;;;;7.77;7.10;;;33.70;1.00;;;;;;5014359;28;20210;-74
2023/06/04 06:28:21;;;;;;;7.07;6.57;;;33.90;1.00;;;;;;5014405;28;20896;-74
2023/06/04 06:30:47;;;;;;;7.30;6.70;;;34.20;1.00;;;;;;5014968;28;21970;-74
2023/06/04 06:33:13;;;;;;;6.13;5.53;;;34.30;1.00;;;;;;5015199;28;20176;-74
2023/06/04 06:35:38;;;;;;;6.60;6.10;;;34.40;1.00;;;;;;5013523;28;20422;-72
2023/06/04 06:38:04;;;;;;;6.07;5.67;;;33.50;1.00;;;;;;5014510;28;20215;-73
2023/06/04 06:40:30;;;;;;;6.43;5.83;;;32.90;1.00;;;;;;5014387;28;20581;-73
2023/06/04 06:42:56;;;;;;;8.00;6.77;;;33.40;1.00;;;;;;5014364;28;20190;-72
2023/06/04 06:45:21;;;;;;;7.60;6.67;;;33.90;1.00;;;;;;5014334;28;20495;-73
2023/06/04 06:47:47;;;;;;;6.80;6.30;;;34.60;1.00;;;;;;5014246;28;20186;-73
2023/06/04 06:50:13;;;;;;;5.97;5.50;;;35.10;1.00;;;;;;5014166;28;20710;-73
2023/06/04 06:52:38;;;;;;;6.57;5.97;;;35.30;1.00;;;;;;5013902;28;20195;-73
2023/06/04 06:55:05;;;;;;;7.00;6.50;;;35.80;1.00;;;;;;5014026;28;20176;-73
2023/06/04 06:57:30;;;;;;;5.90;5.47;;;35.00;1.00;;;;;;5013837;28;20204;-73
2023/06/04 06:59:56;;;;;;;7.00;6.40;;;34.30;1.00;;;;;;5014003;28;20431;-73
2023/06/04 07:02:23;;;;;;;5.80;5.40;;;33.70;1.00;;;;;;5012076;28;20566;-73
2023/06/04 07:04:48;;;;;;;6.57;5.97;;;34.50;1.00;;;;;;5013842;28;20781;-73
2023/06/04 07:07:14;;;;;;;6.37;5.90;;;35.20;1.00;;;;;;5013849;28;20411;-72
2023/06/04 07:09:39;;;;;;;7.27;6.67;;;33.60;1.00;;;;;;5013543;28;20187;-73
2023/06/04 07:12:06;;;;;;;7.03;6.40;;;34.20;1.00;;;;;;5013303;28;20238;-72
2023/06/04 07:14:31;;;;;;;6.27;5.70;;;34.40;1.00;;;;;;5013347;28;20234;-73
2023/06/04 07:16:57;;;;;;;7.57;6.87;;;35.30;1.00;;;;;;5013329;28;20858;-73
2023/06/04 07:19:23;;;;;;;6.13;5.50;;;35.60;1.00;;;;;;5012775;28;20247;-73
2023/06/04 07:21:50;;;;;;;6.87;6.17;;;35.50;1.00;;;;;;5013156;28;20215;-72
2023/06/04 07:24:15;;;;;;;6.10;5.70;;;35.80;1.00;;;;;;5013460;28;20172;-73
2023/06/04 07:26:41;;;;;;;5.33;4.90;;;35.60;1.00;;;;;;5013306;28;20928;-73
2023/06/04 07:29:07;;;;;;;5.50;5.10;;;35.20;1.00;;;;;;5013326;28;20183;-73
2023/06/04 07:31:32;;;;;;;5.50;5.10;;;35.20;1.00;;;;;;5011651;28;20246;-73
2023/06/04 07:33:58;;;;;;;6.27;5.80;;;35.80;1.00;;;;;;5013269;28;20555;-73
2023/06/04 07:36:23;;;;;;;6.13;5.67;;;36.00;1.00;;;;;;5012913;28;20195;-73
2023/06/04 07:38:49;;;;;;;5.47;5.07;;;35.60;1.00;;;;;;5013217;28;20587;-73
2023/06/04 07:41:14;;;;;;;6.73;6.10;;;34.40;1.00;;;;;;5013080;28;20268;-73
2023/06/04 07:43:40;;;;;;;6.00;5.57;;;33.90;1.00;;;;;;5013194;28;20168;-73
2023/06/04 07:46:06;;;;;;;6.33;5.83;;;33.80;1.00;;;;;;5012957;28;20172;-74
2023/06/04 07:48:31;;;;;;;8.33;5.80;;;34.00;1.00;;;;;;5011563;28;20211;-73
2023/06/04 07:51:01;;;;;;;5.20;4.70;;;34.30;1.00;;;;;;5012913;28;20606;-74
2023/06/04 07:53:27;;;;;;;5.53;5.13;;;33.10;1.00;;;;;;5012650;28;20204;-73
2023/06/04 07:55:53;;;;;;;5.80;5.40;;;32.70;1.00;;;;;;5012578;28;20465;-73
2023/06/04 07:58:19;;;;;;;6.37;5.77;;;33.60;1.00;;;;;;5011359;28;20183;-74
2023/06/04 08:00:45;;;;;;;5.50;4.93;;;33.30;1.00;;;;;;5011249;28;20419;-74
2023/06/04 08:03:11;;;;;;;5.40;5.00;;;33.60;1.00;;;;;;5012716;28;20461;-73
2023/06/04 08:05:36;;;;;;;6.10;5.57;;;33.50;1.00;;;;;;5013192;28;20334;-74
2023/06/04 08:08:03;;;;;;;6.30;5.80;;;34.00;1.00;;;;;;5012663;28;20180;-74
2023/06/04 08:10:29;;;;;;;7.67;5.10;;;34.70;1.00;;;;;;5012470;28;20183;-73
2023/06/04 08:12:55;;;;;;;5.60;5.17;;;35.80;1.00;;;;;;5012804;28;20450;-73
2023/06/04 08:15:20;;;;;;;5.17;4.77;;;35.00;1.00;;;;;;5012719;28;20426;-74
2023/06/04 08:17:46;;;;;;;6.33;5.73;;;34.80;1.00;;;;;;5012353;28;20873;-74
2023/06/04 08:20:12;;;;;;;5.50;5.10;;;34.70;1.00;;;;;;5012566;28;20559;-73
2023/06/04 08:22:37;;;;;;;5.13;4.60;;;34.10;1.00;;;;;;5012066;28;20192;-73
2023/06/04 08:25:04;;;;;;;5.83;5.33;;;35.20;1.00;;;;;;5012544;28;20254;-74
2023/06/04 08:27:30;;;;;;;5.10;4.70;;;36.10;1.00;;;;;;5012702;28;20180;-74
2023/06/04 08:29:57;;;;;;;6.40;5.17;;;36.20;1.00;;;;;;5012013;28;20423;-72
2023/06/04 08:32:23;;;;;;;5.50;5.10;;;35.30;1.00;;;;;;5011508;28;20457;-72
2023/06/04 08:34:49;;;;;;;6.53;5.40;;;34.50;1.00;;;;;;5012379;28;20455;-74
2023/06/04 08:37:15;;;;;;;5.63;5.23;;;34.40;1.00;;;;;;5012000;28;20504;-73
2023/06/04 08:39:41;;;;;;;5.90;5.40;;;33.60;1.00;;;;;;5012153;28;20196;-71
2023/06/04 08:42:09;;;;;;;6.20;5.60;;;32.50;1.00;;;;;;5011852;28;20192;-71
2023/06/04 08:44:35;;;;;;;5.43;5.03;;;32.60;1.00;;;;;;5011859;28;20407;-71
2023/06/04 08:47:05;;;;;;;6.33;5.73;;;31.80;1.00;;;;;;5012025;28;20477;-71
2023/06/04 08:49:40;;;;;;;6.80;5.20;;;31.40;1.00;;;;;;5010592;28;20218;-74
2023/06/04 08:52:06;;;;;;;7.30;4.90;;;31.40;1.00;;;;;;5011559;28;20434;-74
2023/06/04 08:54:32;;;;;;;4.70;4.30;;;32.20;1.00;;;;;;5011996;28;20425;-73
2023/06/04 08:57:02;;;;;;;8.13;4.80;;;32.30;1.00;;;;;;5011926;28;20665;-74
2023/06/04 08:59:30;;;;;;;5.50;4.93;;;32.20;1.00;;;;;;5012487;28;21023;-74
2023/06/04 09:01:57;;;;;;;6.53;5.17;;;31.60;1.00;;;;;;5012092;28;20430;-74
2023/06/04 09:04:24;;;;;;;4.57;4.27;;;31.40;1.00;;;;;;5012169;28;20415;-73
2023/06/04 09:06:50;;;;;;;5.53;4.97;;;31.30;1.00;;;;;;5012102;28;20514;-74
2023/06/04 09:09:17;;;;;;;5.40;5.00;;;31.00;1.00;;;;;;5012083;28;20601;-74
2023/06/04 09:11:52;;;;;;;7.43;5.00;;;30.30;1.00;;;;;;5011700;28;20561;-73
2023/06/04 09:14:18;;;;;;;5.63;5.13;;;29.50;1.00;;;;;;5012216;28;20527;-73
2023/06/04 09:16:46;;;;;;;5.73;5.30;;;27.70;1.00;;;;;;5012055;28;20493;-73
2023/06/04 09:19:11;;;;;;;5.80;5.30;;;26.00;2.90;;;;;;5011968;28;20411;-73
2023/06/04 09:21:54;;;;;;;5.47;5.07;;;25.10;1.00;;;;;;5011742;28;20504;-73
2023/06/04 09:24:21;;;;;;;5.17;4.60;;;24.30;6.50;;;;;;5012462;28;20168;-73
2023/06/04 09:26:47;;;;;;;5.60;5.00;;;23.80;7.00;;;;;;5012234;28;20423;-74
2023/06/04 09:29:14;;;;;;;5.83;5.33;;;23.70;7.50;;;;;;5011869;28;20426;-72
2023/06/04 09:31:40;;;;;;;4.80;4.30;;;23.80;6.80;;;;;;5011475;28;20219;-73
2023/06/04 09:34:06;;;;;;;4.53;4.13;;;23.70;6.80;;;;;;5010602;28;20513;-73
2023/06/04 09:36:35;;;;;;;4.70;4.30;;;23.50;6.60;;;;;;5011642;28;20338;-74
2023/06/04 09:39:03;;;;;;;5.17;4.77;;;23.60;6.90;;;;;;5012176;28;20931;-73
2023/06/04 09:41:29;;;;;;;5.17;4.77;;;23.70;6.40;;;;;;5011569;28;20426;-73
2023/06/04 09:44:02;;;;;;;5.77;5.00;;;23.80;6.90;;;;;;5014119;28;20438;-73
2023/06/04 09:46:29;;;;;;;6.87;6.17;;;23.80;6.20;;;;;;5015337;28;20433;-73
2023/06/04 09:49:03;;;;;;;6.67;5.40;;;23.70;6.40;;;;;;5014001;28;20506;-73
2023/06/04 09:51:30;;;;;;;4.47;4.10;;;23.60;6.50;;;;;;5013549;28;20442;-73
2023/06/04 09:53:59;;;;;;;5.63;5.13;;;23.70;6.80;;;;;;5013953;28;20418;-73
2023/06/04 09:56:26;;;;;;;4.90;4.50;;;23.90;5.40;;;;;;5013889;28;20566;-74
2023/06/04 09:59:01;;;;;;;5.33;4.73;;;24.10;3.80;;;;;;5015056;28;20419;-73
2023/06/04 10:01:29;;;;;;;5.60;4.20;;;24.20;4.40;;;;;;5016657;28;20900;-74
2023/06/04 10:03:57;;;;;;;5.03;4.63;;;24.40;6.70;;;;;;5023141;28;20932;-74
2023/06/04 10:06:23;;;;;;;5.97;5.40;;;24.30;6.00;;;;;;5019688;28;20415;-74
2023/06/04 10:08:52;;;;;;;6.17;5.57;;;24.20;6.10;;;;;;5016629;28;20782;-73
2023/06/04 10:11:29;;;;;;;5.37;4.87;;;24.20;5.80;;;;;;5016513;28;20435;-73
2023/06/04 10:14:04;;;;;;;5.50;5.10;;;24.10;5.80;;;;;;5015690;28;20472;-73
2023/06/04 10:16:31;;;;;;;4.87;4.50;;;24.20;6.20;;;;;;5015078;28;20541;-72
2023/06/04 10:18:58;;;;;;;5.20;4.80;;;24.30;5.90;;;;;;5014960;28;20488;-72
2023/06/04 10:21:26;;;;;;;5.57;5.07;;;24.40;6.50;;;;;;5014647;28;20435;-72
2023/06/04 10:23:51;;;;;;;5.80;5.27;;;24.50;6.10;;;;;;5014912;28;20788;-73
2023/06/04 10:26:18;;;;;;;6.20;5.60;;;24.60;6.10;;;;;;5015233;28;20446;-74
2023/06/04 10:28:44;;;;;;;5.90;5.40;;;24.70;6.20;;;;;;5014943;28;20172;-72
2023/06/04 10:31:10;;;;;;;5.83;5.30;;;24.90;6.30;;;;;;5015590;28;20570;-74
2023/06/04 10:33:36;;;;;;;5.70;5.30;;;25.00;5.30;;;;;;5014683;28;20432;-73
2023/06/04 10:36:21;;;;;;;5.83;5.33;;;24.90;5.30;;;;;;5014791;28;20465;-73
2023/06/04 10:38:52;;;;;;;6.40;5.80;;;24.90;5.60;;;;;;5014223;28;20188;-73
2023/06/04 10:41:22;;;;;;;5.70;5.30;;;24.80;5.70;;;;;;5014065;28;20447;-74
2023/06/04 10:43:50;;;;;;;5.80;5.20;;;25.00;6.00;;;;;;5015365;28;20414;-73
2023/06/04 10:46:18;;;;;;;5.83;5.33;;;25.10;4.90;;;;;;5014298;28;20783;-73
2023/06/04 10:48:53;;;;;;;10.10;6.20;;;25.10;4.90;;;;;;5015888;28;20421;-73
2023/06/04 10:51:37;;;;;;;6.57;6.07;;;25.10;4.50;;;;;;5013773;28;20966;-73
2023/06/04 10:54:03;;;;;;;6.20;5.60;;;25.20;5.50;;;;;;5012730;28;20481;-75
2023/06/04 10:56:36;;;;;;;6.40;5.80;;;25.40;1.00;;;;;;5014676;28;20458;-73
2023/06/04 10:59:14;;;;;;;6.00;5.40;;;25.60;1.00;;;;;;5014490;28;20443;-73
2023/06/04 11:01:40;;;;;;;6.83;6.13;;;25.70;1.00;;;;;;5013487;28;20435;-73
2023/06/04 11:04:05;;;;;;;12.13;5.37;;;25.50;1.00;;;;;;5014666;28;20880;-73
2023/06/04 11:06:32;;;;;;;6.80;6.20;;;25.70;1.00;;;;;;5014156;28;20693;-72
2023/06/04 11:09:03;;;;;;;6.50;6.00;;;26.00;1.00;;;;;;5014163;28;20188;-72
2023/06/04 11:11:29;;;;;;;6.57;6.00;;;25.90;1.00;;;;;;5014528;28;20443;-74
2023/06/04 11:13:55;;;;;;;7.47;6.50;;;26.20;1.00;;;;;;5012881;28;20423;-74
2023/06/04 11:16:21;;;;;;;5.57;5.07;;;26.40;1.00;;;;;;5014804;28;20504;-73
2023/06/04 11:18:58;;;;;;;6.53;6.03;;;26.40;1.00;;;;;;5017169;28;20176;-73
2023/06/04 11:21:24;;;;;;;7.13;6.33;;;26.30;1.00;;;;;;5021320;28;20525;-73
2023/06/04 11:23:56;;;;;;;5.77;5.27;;;26.30;1.00;;;;;;5019737;28;20426;-73
2023/06/04 11:26:22;;;;;;;5.37;4.87;;;26.40;1.00;;;;;;5014137;28;20435;-73
2023/06/04 11:28:50;;;;;;;6.17;5.57;;;26.40;1.00;;;;;;5016325;28;20422;-73
2023/06/04 11:31:16;;;;;;;7.27;6.07;;;26.50;1.00;;;;;;5017693;28;20567;-72
2023/06/04 11:33:45;;;;;;;6.73;6.13;;;26.60;1.00;;;;;;5013735;28;20505;-74
2023/06/04 11:36:29;;;;;;;6.90;6.17;;;26.40;1.00;;;;;;5014240;28;20180;-74
2023/06/04 11:39:02;;;;;;;6.20;5.60;;;26.40;1.00;;;;;;5013956;28;20947;-73
2023/06/04 11:41:30;;;;;;;8.43;5.40;;;26.20;1.00;;;;;;5013290;28;20441;-74
2023/06/04 11:43:57;;;;;;;7.73;4.93;;;26.00;1.00;;;;;;5013479;28;20819;-73
2023/06/04 11:46:23;;;;;;;6.67;6.07;;;25.90;1.00;;;;;;5013243;28;20426;-74
2023/06/04 11:48:52;;;;;;;7.00;6.37;;;26.20;1.00;;;;;;5011865;28;20927;-73
2023/06/04 11:51:21;;;;;;;6.53;5.93;;;26.10;1.00;;;;;;5013096;28;20473;-75
2023/06/04 11:53:47;;;;;;;6.37;5.87;;;26.30;1.00;;;;;;5014955;28;20450;-73
2023/06/04 11:56:13;;;;;;;6.70;6.10;;;26.40;1.00;;;;;;5013489;28;20451;-74
2023/06/04 11:58:40;;;;;;;7.60;6.90;;;26.60;1.00;;;;;;5015113;28;20427;-73
2023/06/04 12:01:13;;;;;;;6.07;5.50;;;26.30;1.00;;;;;;5015567;28;20821;-72
2023/06/04 12:03:42;;;;;;;6.37;5.83;;;26.00;1.00;;;;;;5013886;28;20423;-73
2023/06/04 12:06:19;;;;;;;5.70;5.30;;;26.10;1.00;;;;;;5013343;28;20908;-72
2023/06/04 12:08:48;;;;;;;9.20;6.30;;;26.30;1.00;;;;;;5014152;28;20450;-74
2023/06/04 12:11:43;;;;;;;6.67;6.00;;;26.20;1.00;;;;;;5015112;28;20474;-73
2023/06/04 12:14:19;;;;;;;6.30;5.80;;;26.30;1.00;;;;;;5012283;28;20437;-72
2023/06/04 12:16:58;;;;;;;20.93;6.40;;;26.30;1.00;;;;;;5013908;28;20480;-73
2023/06/04 12:19:25;;;;;;;6.97;6.37;;;26.60;1.00;;;;;;5013046;28;20816;-73
2023/06/04 12:22:06;;;;;;;6.33;5.73;;;26.70;1.00;;;;;;5012285;28;20435;-72
2023/06/04 12:24:47;;;;;;;6.37;5.87;;;26.70;1.00;;;;;;5011423;28;20436;-73
2023/06/04 12:27:13;;;;;;;6.80;6.20;;;26.70;1.00;;;;;;5012610;28;20454;-74
2023/06/04 12:29:38;;;;;;;6.27;5.77;;;26.40;1.00;;;;;;5012454;28;20465;-73
2023/06/04 12:32:09;;;;;;;6.53;6.00;;;26.40;1.00;;;;;;5010856;28;20639;-73
2023/06/04 12:34:38;;;;;;;8.23;7.40;;;26.50;1.00;;;;;;5012459;28;20180;-73
2023/06/04 12:37:05;;;;;;;6.77;6.23;;;26.40;1.00;;;;;;5012326;28;20480;-73
2023/06/04 12:39:36;;;;;;;5.80;5.20;;;26.10;1.00;;;;;;5011447;28;20522;-72
2023/06/04 12:42:11;;;;;;;7.10;6.60;;;26.20;1.00;;;;;;5011147;28;20447;-73
2023/06/04 12:44:40;;;;;;;6.57;6.07;;;26.10;1.00;;;;;;5012687;28;20476;-74
2023/06/04 12:47:07;;;;;;;7.07;6.47;;;26.20;1.00;;;;;;5012560;28;20810;-73
2023/06/04 12:49:32;;;;;;;6.13;5.73;;;26.30;1.00;;;;;;5012349;28;20451;-73
2023/06/04 12:51:58;;;;;;;7.60;6.03;;;26.20;1.00;;;;;;5011822;28;20474;-73
2023/06/04 12:54:24;;;;;;;6.20;5.80;;;26.00;1.00;;;;;;5012968;28;20207;-73